Time;durP1;ratioP1;P1;durP2;ratioP2;P2;SDS_P1;SDS_P2;PMS_P1;PMS_P2;Temp;Humidity;BMP_temperature;BMP_pressure;BME280_temperature;BME280_humidity;BME280_pressure;Samples;Min_cycle;Max_cycle;Signal;HPM_P1;HPM_P2
2020/12/10 00:01:47;;;;;;;54.60;29.97;;;4.50;99.90;;;;;;5036846;28;36788;-76
2020/12/10 00:04:14;;;;;;;53.20;30.57;;;4.50;99.90;;;;;;5015276;28;38069;-76
2020/12/10 00:06:40;;;;;;;62.23;33.40;;;4.50;99.90;;;;;;5033716;28;36095;-76
2020/12/10 00:09:07;;;;;;;55.73;31.27;;;4.50;99.90;;;;;;5032354;28;37812;-77
2020/12/10 00:11:37;;;;;;;57.10;31.83;;;4.50;99.90;;;;;;5026470;28;38551;-77
2020/12/10 00:14:06;;;;;;;55.77;30.57;;;4.40;99.90;;;;;;5059437;28;37177;-77
2020/12/10 00:16:32;;;;;;;56.50;29.73;;;4.40;99.90;;;;;;5022004;28;36681;-77
2020/12/10 00:18:58;;;;;;;55.27;28.77;;;4.40;99.90;;;;;;5020223;28;39104;-77
2020/12/10 00:21:25;;;;;;;56.73;31.07;;;4.40;99.90;;;;;;5038025;28;37996;-77
2020/12/10 00:23:51;;;;;;;50.37;27.63;;;4.40;99.90;;;;;;5024622;28;37420;-77
2020/12/10 00:26:18;;;;;;;49.83;29.17;;;4.40;99.90;;;;;;5026179;28;36519;-77
2020/12/10 00:28:44;;;;;;;52.90;29.17;;;4.40;99.90;;;;;;5017349;28;39949;-77
2020/12/10 00:31:10;;;;;;;47.17;28.13;;;4.40;99.90;;;;;;5018575;28;38317;-76
2020/12/10 00:33:37;;;;;;;48.63;27.97;;;4.30;99.90;;;;;;5019338;28;38369;-77
2020/12/10 00:36:03;;;;;;;56.27;28.93;;;4.40;99.90;;;;;;5031443;28;36388;-76
2020/12/10 00:38:30;;;;;;;52.03;27.07;;;4.30;99.90;;;;;;5018431;28;37099;-77
2020/12/10 00:40:56;;;;;;;55.23;27.73;;;4.30;99.90;;;;;;5022286;28;37567;-77
2020/12/10 00:43:22;;;;;;;56.07;27.87;;;4.30;99.90;;;;;;5022015;28;37535;-76
2020/12/10 00:45:48;;;;;;;53.23;28.53;;;4.30;99.90;;;;;;5019224;28;36446;-77
2020/12/10 00:48:14;;;;;;;53.53;28.33;;;4.20;99.90;;;;;;5016445;28;37862;-76
2020/12/10 00:50:40;;;;;;;53.60;29.37;;;4.20;99.90;;;;;;5020224;28;37362;-76
2020/12/10 00:53:07;;;;;;;48.87;28.70;;;4.20;99.90;;;;;;5019062;28;37052;-77
2020/12/10 00:55:33;;;;;;;55.23;29.60;;;4.20;99.90;;;;;;5022656;28;37755;-76
2020/12/10 00:57:59;;;;;;;52.63;29.37;;;4.20;99.90;;;;;;5033538;28;36983;-76
2020/12/10 01:00:25;;;;;;;52.93;28.87;;;4.10;99.90;;;;;;5015822;28;36944;-77
2020/12/10 01:02:51;;;;;;;48.53;28.97;;;4.10;99.90;;;;;;5034909;28;37179;-77
2020/12/10 01:05:17;;;;;;;50.93;27.90;;;4.10;99.90;;;;;;5017806;28;36473;-77
2020/12/10 01:07:43;;;;;;;52.93;27.80;;;4.10;99.90;;;;;;5027093;28;38195;-77
2020/12/10 01:10:09;;;;;;;57.33;29.80;;;4.00;99.90;;;;;;5024972;28;36955;-77
2020/12/10 01:12:36;;;;;;;52.83;29.10;;;4.00;99.90;;;;;;5033983;28;39018;-77
2020/12/10 01:15:02;;;;;;;47.13;26.80;;;4.10;99.90;;;;;;5022851;28;37309;-76
2020/12/10 01:17:28;;;;;;;49.53;27.50;;;4.10;99.90;;;;;;5018119;28;47811;-76
2020/12/10 01:19:55;;;;;;;49.37;25.83;;;4.10;99.90;;;;;;5019707;28;38837;-76
2020/12/10 01:22:21;;;;;;;48.70;26.93;;;4.10;99.90;;;;;;5017834;28;37144;-77
2020/12/10 01:24:47;;;;;;;51.53;26.27;;;4.10;99.90;;;;;;5028307;28;37153;-76
2020/12/10 01:27:13;;;;;;;42.57;24.10;;;4.10;99.90;;;;;;5023004;28;38934;-76
2020/12/10 01:29:39;;;;;;;40.47;23.90;;;4.10;99.90;;;;;;5023965;28;37468;-77
2020/12/10 01:32:06;;;;;;;45.30;23.77;;;4.10;99.90;;;;;;5017074;28;39226;-76
2020/12/10 01:34:32;;;;;;;39.40;22.60;;;4.10;99.90;;;;;;5016611;28;35869;-77
2020/12/10 01:36:58;;;;;;;39.20;21.87;;;4.10;99.90;;;;;;5014380;28;38933;-76
2020/12/10 01:39:24;;;;;;;39.43;21.90;;;4.10;99.90;;;;;;5018041;28;38172;-76
2020/12/10 01:41:50;;;;;;;33.73;20.43;;;4.10;99.90;;;;;;5026629;28;37838;-77
2020/12/10 01:44:16;;;;;;;35.10;20.27;;;4.00;99.90;;;;;;5017212;28;36317;-77
2020/12/10 01:46:42;;;;;;;34.73;20.07;;;4.00;99.90;;;;;;5031444;28;37598;-77
2020/12/10 01:49:09;;;;;;;36.60;20.93;;;4.00;99.90;;;;;;5018311;28;38693;-77
2020/12/10 01:51:36;;;;;;;35.13;21.17;;;4.00;99.90;;;;;;5017297;28;39174;-77
2020/12/10 01:54:04;;;;;;;33.07;20.23;;;4.00;99.90;;;;;;5022355;28;37456;-77
2020/12/10 01:56:31;;;;;;;33.10;20.33;;;3.90;99.90;;;;;;5018097;28;48339;-76
2020/12/10 01:59:00;;;;;;;37.93;21.37;;;3.90;99.90;;;;;;5018440;28;38340;-77
2020/12/10 02:01:28;;;;;;;35.67;20.23;;;3.90;99.90;;;;;;5011505;28;38622;-77
2020/12/10 02:03:55;;;;;;;37.17;21.20;;;3.90;99.90;;;;;;5029268;28;34859;-77
2020/12/10 02:06:21;;;;;;;32.00;20.27;;;3.90;99.90;;;;;;5044765;28;39196;-81
2020/12/10 02:08:47;;;;;;;36.70;19.67;;;4.00;99.90;;;;;;5006197;28;39219;-77
2020/12/10 02:11:13;;;;;;;31.83;19.00;;;3.90;99.90;;;;;;5043091;28;38430;-77
2020/12/10 02:13:39;;;;;;;30.93;18.13;;;3.90;99.90;;;;;;5021139;28;38677;-76
2020/12/10 02:16:07;;;;;;;30.57;17.57;;;3.90;99.90;;;;;;5034976;28;39661;-76
2020/12/10 02:18:34;;;;;;;29.97;17.83;;;3.90;99.90;;;;;;5046402;28;37789;-77
2020/12/10 02:21:00;;;;;;;30.90;17.60;;;3.90;99.90;;;;;;5020624;28;38106;-76
2020/12/10 02:23:26;;;;;;;33.27;18.80;;;3.90;99.90;;;;;;5017767;28;35980;-78
2020/12/10 02:25:53;;;;;;;34.67;18.63;;;3.90;99.90;;;;;;5022164;28;37717;-77
2020/12/10 02:28:19;;;;;;;28.50;17.77;;;3.90;99.90;;;;;;5039312;28;36414;-77
2020/12/10 02:30:47;;;;;;;27.90;17.07;;;3.90;99.90;;;;;;5024314;28;36980;-77
2020/12/10 02:33:13;;;;;;;28.93;17.77;;;3.90;99.90;;;;;;4999517;28;35812;-78
2020/12/10 02:35:42;;;;;;;29.33;17.43;;;3.90;99.90;;;;;;5002050;28;39748;-77
2020/12/10 02:38:10;;;;;;;28.00;16.83;;;3.90;99.90;;;;;;5014213;28;37367;-77
2020/12/10 02:40:43;;;;;;;27.67;16.40;;;3.90;99.90;;;;;;4996931;28;37984;-77
2020/12/10 02:43:10;;;;;;;26.02;16.48;;;3.90;99.90;;;;;;5001736;28;36351;-77
2020/12/10 02:45:38;;;;;;;26.93;17.27;;;3.80;99.90;;;;;;4999937;28;39737;-77
2020/12/10 02:48:04;;;;;;;28.23;16.73;;;3.80;99.90;;;;;;5016217;28;36749;-77
2020/12/10 02:50:30;;;;;;;28.20;16.80;;;3.70;99.90;;;;;;5003441;28;38285;-77
2020/12/10 02:52:57;;;;;;;29.50;16.20;;;3.70;99.90;;;;;;5002287;28;37302;-77
2020/12/10 02:55:23;;;;;;;32.33;18.20;;;3.60;99.90;;;;;;5006911;28;38199;-77
2020/12/10 02:57:49;;;;;;;31.57;19.57;;;3.60;99.90;;;;;;4998187;28;38304;-77
2020/12/10 03:00:15;;;;;;;30.97;18.13;;;3.60;99.90;;;;;;5003802;28;37847;-77
2020/12/10 03:02:41;;;;;;;32.10;18.03;;;3.60;99.90;;;;;;4996021;28;37326;-77
2020/12/10 03:05:07;;;;;;;27.50;17.50;;;3.60;99.90;;;;;;4999229;28;37657;-77
2020/12/10 03:07:34;;;;;;;30.57;17.13;;;3.60;99.90;;;;;;5001146;28;38240;-76
2020/12/10 03:10:01;;;;;;;28.67;16.93;;;3.60;99.90;;;;;;5004135;28;38109;-77
2020/12/10 03:12:27;;;;;;;25.57;16.70;;;3.50;99.90;;;;;;5010849;28;39316;-77
2020/12/10 03:14:53;;;;;;;31.33;18.00;;;3.50;99.90;;;;;;5047564;28;37704;-77
2020/12/10 03:17:19;;;;;;;32.87;19.03;;;3.50;99.90;;;;;;5003416;28;38094;-76
2020/12/10 03:19:45;;;;;;;32.20;18.33;;;3.50;99.90;;;;;;5023510;28;37408;-76
2020/12/10 03:22:13;;;;;;;33.37;18.00;;;3.40;99.90;;;;;;5018426;28;34999;-77
2020/12/10 03:24:40;;;;;;;29.47;17.87;;;3.40;99.90;;;;;;5024430;28;38800;-77
2020/12/10 03:27:06;;;;;;;26.93;15.93;;;3.40;99.90;;;;;;5019560;28;37805;-77
2020/12/10 03:29:33;;;;;;;28.00;17.50;;;3.40;99.90;;;;;;5033364;28;38156;-76
2020/12/10 03:31:59;;;;;;;38.00;18.70;;;3.40;99.90;;;;;;5021577;28;37407;-77
2020/12/10 03:34:27;;;;;;;31.57;17.43;;;3.40;99.90;;;;;;5029705;28;37917;-76
2020/12/10 03:36:55;;;;;;;31.17;16.83;;;3.30;99.90;;;;;;5014350;28;39019;-77
2020/12/10 03:39:23;;;;;;;33.03;18.03;;;3.30;99.90;;;;;;5017432;28;38746;-77
2020/12/10 03:41:50;;;;;;;30.63;17.67;;;3.30;99.90;;;;;;5040810;28;36958;-77
2020/12/10 03:44:17;;;;;;;28.90;16.70;;;3.30;99.90;;;;;;5024652;28;35736;-77
2020/12/10 03:46:44;;;;;;;26.97;16.53;;;3.30;99.90;;;;;;5025399;28;39029;-77
2020/12/10 03:49:11;;;;;;;30.07;16.13;;;3.30;99.90;;;;;;5034639;28;38563;-76
2020/12/10 03:51:38;;;;;;;26.40;15.17;;;3.30;99.90;;;;;;5020123;28;38304;-76
2020/12/10 03:54:04;;;;;;;26.83;16.30;;;3.20;99.90;;;;;;5059583;28;38362;-76
2020/12/10 03:56:31;;;;;;;27.43;15.67;;;3.20;99.90;;;;;;5023673;28;38561;-76
2020/12/10 03:59:01;;;;;;;29.83;15.60;;;3.20;99.90;;;;;;5022976;28;36976;-76
2020/12/10 04:01:27;;;;;;;24.93;14.73;;;3.20;99.90;;;;;;5018527;28;37346;-76
2020/12/10 04:03:54;;;;;;;28.47;15.57;;;3.20;99.90;;;;;;5016321;28;38179;-77
2020/12/10 04:06:21;;;;;;;29.87;16.03;;;3.20;99.90;;;;;;5032409;28;38559;-77
2020/12/10 04:08:47;;;;;;;28.20;15.23;;;3.20;99.90;;;;;;5033975;28;37978;-77
2020/12/10 04:11:13;;;;;;;31.43;16.30;;;3.20;99.90;;;;;;5022682;28;37659;-77
2020/12/10 04:13:40;;;;;;;24.80;14.10;;;3.20;99.90;;;;;;5021329;28;38943;-76
2020/12/10 04:16:06;;;;;;;32.57;17.60;;;3.20;99.90;;;;;;5018806;28;38798;-77
2020/12/10 04:18:37;;;;;;;28.83;16.50;;;3.10;99.90;;;;;;5019547;28;37309;-76
2020/12/10 04:21:04;;;;;;;24.93;15.77;;;3.00;99.90;;;;;;5033644;28;38606;-77
2020/12/10 04:23:30;;;;;;;34.03;17.70;;;3.00;99.90;;;;;;5021263;28;39392;-76
2020/12/10 04:25:56;;;;;;;33.37;16.23;;;2.90;99.90;;;;;;5020473;28;39138;-77
2020/12/10 04:28:23;;;;;;;35.93;17.13;;;2.90;99.90;;;;;;5024282;28;37258;-76
2020/12/10 04:30:49;;;;;;;27.80;16.23;;;2.80;99.90;;;;;;5025514;28;36129;-76
2020/12/10 04:33:15;;;;;;;35.87;18.67;;;2.80;99.90;;;;;;5020782;28;39683;-77
2020/12/10 04:35:42;;;;;;;30.87;17.43;;;2.80;99.90;;;;;;5016595;28;37097;-77
2020/12/10 04:38:09;;;;;;;27.57;15.87;;;2.80;99.90;;;;;;5016528;28;37229;-76
2020/12/10 04:40:36;;;;;;;29.03;15.93;;;2.80;99.90;;;;;;5023519;28;37526;-77
2020/12/10 04:43:11;;;;;;;29.50;16.07;;;2.80;99.90;;;;;;5042706;28;38054;-76
2020/12/10 04:45:37;;;;;;;29.10;15.90;;;2.80;99.90;;;;;;5024485;28;38323;-76
2020/12/10 04:48:03;;;;;;;26.03;15.47;;;2.80;99.90;;;;;;5014913;28;37291;-77
2020/12/10 04:50:32;;;;;;;35.47;17.07;;;2.80;99.90;;;;;;5029733;28;35992;-76
2020/12/10 04:53:00;;;;;;;28.97;15.43;;;2.80;99.90;;;;;;5017887;28;37868;-76
2020/12/10 04:55:26;;;;;;;29.67;16.10;;;2.80;99.90;;;;;;5020439;28;37678;-76
2020/12/10 04:57:54;;;;;;;27.40;14.57;;;2.80;99.90;;;;;;5020861;28;38734;-77
2020/12/10 05:00:21;;;;;;;28.00;15.53;;;2.80;99.90;;;;;;5034316;28;36561;-76
2020/12/10 05:02:47;;;;;;;26.07;14.60;;;2.80;99.90;;;;;;5030985;28;39124;-77
2020/12/10 05:05:24;;;;;;;37.23;18.20;;;2.80;99.90;;;;;;5014164;28;39248;-76
2020/12/10 05:07:51;;;;;;;36.03;17.90;;;2.80;99.90;;;;;;5033524;28;37530;-76
2020/12/10 05:10:18;;;;;;;29.83;16.13;;;2.80;99.90;;;;;;5021451;28;38146;-76
2020/12/10 05:12:45;;;;;;;28.10;15.70;;;2.80;99.90;;;;;;5023529;28;39939;-76
2020/12/10 05:15:17;;;;;;;33.90;17.40;;;2.80;99.90;;;;;;5029699;28;38584;-77
2020/12/10 05:17:43;;;;;;;36.97;17.77;;;2.80;99.90;;;;;;5028783;28;38193;-76
2020/12/10 05:20:10;;;;;;;30.97;16.50;;;2.80;99.90;;;;;;5012869;28;36087;-76
2020/12/10 05:22:45;;;;;;;29.10;16.77;;;2.80;99.90;;;;;;5026693;28;38342;-76
2020/12/10 05:25:11;;;;;;;36.47;17.80;;;2.80;99.90;;;;;;4994425;28;38369;-77
2020/12/10 05:27:38;;;;;;;32.67;17.40;;;2.80;99.90;;;;;;4999380;28;38197;-76
2020/12/10 05:30:05;;;;;;;32.63;16.60;;;2.80;99.90;;;;;;5000957;28;36376;-76
2020/12/10 05:32:39;;;;;;;35.40;18.40;;;2.80;99.90;;;;;;4996241;28;38726;-77
2020/12/10 05:35:20;;;;;;;32.13;17.40;;;2.80;99.90;;;;;;5027215;28;38619;-76
2020/12/10 05:37:48;;;;;;;31.33;16.83;;;2.80;99.90;;;;;;5032433;28;37126;-76
2020/12/10 05:40:14;;;;;;;29.83;16.60;;;2.80;99.90;;;;;;5001339;28;36560;-77
2020/12/10 05:42:42;;;;;;;37.03;19.90;;;2.80;99.90;;;;;;5006711;28;39272;-77
2020/12/10 05:45:13;;;;;;;30.67;17.37;;;2.80;99.90;;;;;;5036731;28;37254;-77
2020/12/10 05:47:43;;;;;;;34.87;18.73;;;2.80;99.90;;;;;;5028251;28;37312;-77
2020/12/10 05:50:11;;;;;;;39.47;19.07;;;2.80;99.90;;;;;;5032996;28;36303;-76
2020/12/10 05:52:43;;;;;;;32.63;18.90;;;2.80;99.90;;;;;;5019161;28;38665;-77
2020/12/10 05:55:11;;;;;;;34.43;18.00;;;2.80;99.90;;;;;;5030062;28;38174;-77
2020/12/10 05:57:42;;;;;;;30.03;17.50;;;2.80;99.90;;;;;;5049763;28;37667;-77
2020/12/10 06:00:08;;;;;;;34.83;17.90;;;2.90;99.90;;;;;;5018691;28;38144;-77
2020/12/10 06:02:35;;;;;;;33.03;18.37;;;2.90;99.90;;;;;;5021718;28;37643;-77
2020/12/10 06:05:03;;;;;;;34.17;19.53;;;2.90;99.90;;;;;;5025384;28;37335;-77
2020/12/10 06:07:29;;;;;;;33.13;18.37;;;3.00;99.90;;;;;;5020179;28;38679;-77
2020/12/10 06:09:56;;;;;;;31.77;18.30;;;3.00;99.90;;;;;;5018611;28;37347;-77
2020/12/10 06:12:25;;;;;;;30.07;16.97;;;3.00;99.90;;;;;;5018720;28;37269;-77
2020/12/10 06:14:58;;;;;;;31.50;16.87;;;3.10;99.90;;;;;;5022770;28;38656;-78
2020/12/10 06:17:25;;;;;;;34.03;17.33;;;3.10;99.90;;;;;;5034543;28;36770;-77
2020/12/10 06:19:51;;;;;;;30.63;17.23;;;3.10;99.90;;;;;;5020231;28;37544;-77
2020/12/10 06:22:31;;;;;;;26.27;16.37;;;3.10;99.90;;;;;;5019707;28;38537;-77
2020/12/10 06:25:01;;;;;;;27.83;16.70;;;3.10;99.90;;;;;;5039716;28;38794;-77
2020/12/10 06:27:31;;;;;;;28.97;16.27;;;3.10;99.90;;;;;;5059390;28;47104;-77
2020/12/10 06:30:11;;;;;;;30.47;18.23;;;3.10;99.90;;;;;;5025283;28;36471;-76
2020/12/10 06:32:42;;;;;;;31.43;17.70;;;3.10;99.90;;;;;;5037819;28;47549;-76
2020/12/10 06:35:24;;;;;;;30.37;17.23;;;3.10;99.90;;;;;;5023647;28;38531;-76
2020/12/10 06:37:50;;;;;;;29.63;16.87;;;3.10;99.90;;;;;;5031356;28;36871;-76
2020/12/10 06:40:28;;;;;;;26.63;16.50;;;3.20;99.90;;;;;;5007886;28;36849;-78
2020/12/10 06:42:54;;;;;;;27.37;16.57;;;3.20;99.90;;;;;;5003773;28;39870;-77
2020/12/10 06:45:34;;;;;;;29.30;17.40;;;3.20;99.90;;;;;;5027601;28;37442;-77
2020/12/10 06:48:02;;;;;;;28.97;16.90;;;3.20;99.90;;;;;;5029259;28;39106;-76
2020/12/10 06:50:31;;;;;;;31.37;17.40;;;3.20;99.90;;;;;;5005175;28;48794;-77
2020/12/10 06:53:26;;;;;;;30.23;17.43;;;3.30;99.90;;;;;;5022114;28;38244;-78
2020/12/10 06:55:55;;;;;;;26.43;17.17;;;3.20;99.90;;;;;;5003403;28;48861;-78
2020/12/10 06:58:44;;;;;;;27.73;17.07;;;3.20;99.90;;;;;;5031182;28;37936;-76
2020/12/10 07:01:29;;;;;;;28.17;16.57;;;3.20;99.90;;;;;;5001229;28;37766;-76
2020/12/10 07:07:12;;;;;;;29.97;17.47;;;3.20;99.90;;;;;;5003749;28;49721;-77
2020/12/10 07:10:02;;;;;;;30.00;17.00;;;3.20;99.90;;;;;;5004323;28;48734;-77
2020/12/10 07:12:33;;;;;;;27.60;15.97;;;3.20;99.90;;;;;;4987718;28;48600;-77
2020/12/10 07:15:15;;;;;;;23.80;15.30;;;3.20;99.90;;;;;;5000113;28;38296;-77
2020/12/10 07:17:47;;;;;;;29.27;16.05;;;3.20;99.90;;;;;;5021074;28;47516;-76
2020/12/10 07:20:13;;;;;;;23.77;14.77;;;3.10;99.90;;;;;;5021192;28;37251;-77
2020/12/10 07:22:39;;;;;;;34.00;15.83;;;3.10;99.90;;;;;;5021286;28;36206;-77
2020/12/10 07:25:06;;;;;;;26.07;15.87;;;3.00;99.90;;;;;;5008815;28;39532;-77
2020/12/10 07:27:33;;;;;;;24.37;14.97;;;3.00;99.90;;;;;;5000051;28;38467;-77
2020/12/10 07:29:59;;;;;;;29.77;17.67;;;2.90;99.90;;;;;;5005447;28;36932;-77
2020/12/10 07:32:25;;;;;;;29.53;15.93;;;2.90;99.90;;;;;;5004272;28;38349;-77
2020/12/10 07:34:51;;;;;;;32.10;17.13;;;2.90;99.90;;;;;;5025764;28;37828;-77
2020/12/10 07:37:24;;;;;;;29.70;16.37;;;2.80;99.90;;;;;;5005752;28;37390;-77
2020/12/10 07:39:50;;;;;;;37.23;18.90;;;2.80;99.90;;;;;;5008614;28;37783;-77
2020/12/10 07:42:19;;;;;;;39.00;19.77;;;2.80;99.90;;;;;;5000655;28;35376;-77
2020/12/10 07:44:46;;;;;;;27.23;16.73;;;2.80;99.90;;;;;;4998313;28;37668;-77
2020/12/10 07:47:12;;;;;;;36.60;20.23;;;2.80;99.90;;;;;;5005779;28;37656;-77
2020/12/10 07:49:39;;;;;;;26.23;15.47;;;2.80;99.90;;;;;;5004609;28;38465;-77
2020/12/10 07:52:09;;;;;;;42.30;19.83;;;2.80;99.90;;;;;;5011082;28;37616;-76
2020/12/10 07:54:41;;;;;;;27.70;16.10;;;2.70;99.90;;;;;;5014575;28;38579;-76
2020/12/10 07:57:21;;;;;;;33.58;17.98;;;2.70;99.90;;;;;;5014919;28;39098;-77
2020/12/10 07:59:50;;;;;;;28.40;16.60;;;2.70;99.90;;;;;;5005664;28;38131;-77
2020/12/10 08:02:21;;;;;;;32.07;16.83;;;2.70;99.90;;;;;;5010440;28;37356;-77
2020/12/10 08:04:47;;;;;;;25.87;15.17;;;2.70;99.90;;;;;;5014267;28;39340;-77
2020/12/10 08:07:13;;;;;;;34.43;18.10;;;2.70;99.90;;;;;;5006758;28;38409;-77
2020/12/10 08:09:39;;;;;;;30.93;18.03;;;2.70;99.90;;;;;;5007722;28;38092;-77
2020/12/10 08:12:13;;;;;;;34.87;18.10;;;2.70;99.90;;;;;;4999198;28;36676;-77
2020/12/10 08:14:39;;;;;;;27.90;16.70;;;2.70;99.90;;;;;;5009279;28;39064;-77
2020/12/10 08:17:17;;;;;;;26.97;16.27;;;2.80;99.90;;;;;;5021952;28;38845;-76
2020/12/10 08:19:54;;;;;;;30.23;16.47;;;2.80;99.90;;;;;;5006172;28;38509;-77
2020/12/10 08:22:22;;;;;;;25.57;15.80;;;2.80;99.90;;;;;;5005672;28;37344;-77
2020/12/10 08:24:48;;;;;;;27.10;15.40;;;2.80;99.90;;;;;;5005872;28;39038;-77
2020/12/10 08:27:17;;;;;;;26.37;16.63;;;2.80;99.90;;;;;;5008329;28;38285;-77
2020/12/10 08:30:00;;;;;;;27.50;15.13;;;2.80;99.90;;;;;;5015069;28;37175;-77
2020/12/10 08:32:26;;;;;;;28.77;14.87;;;2.80;99.90;;;;;;5024325;28;37914;-77
2020/12/10 08:35:05;;;;;;;28.37;15.27;;;2.80;99.90;;;;;;5025754;28;38938;-77
2020/12/10 08:37:38;;;;;;;24.43;14.87;;;2.80;99.90;;;;;;5022036;28;49617;-77
2020/12/10 08:40:05;;;;;;;26.23;15.57;;;2.80;99.90;;;;;;5023914;28;38051;-76
2020/12/10 08:42:31;;;;;;;23.33;14.47;;;2.80;99.90;;;;;;5023402;28;37632;-77
2020/12/10 08:44:57;;;;;;;23.47;15.80;;;2.80;99.90;;;;;;5038924;28;37677;-76
2020/12/10 08:47:31;;;;;;;29.43;16.37;;;2.80;99.90;;;;;;5025980;28;38667;-77
2020/12/10 08:50:24;;;;;;;24.00;15.83;;;2.80;99.90;;;;;;5021276;28;37377;-77
2020/12/10 08:52:59;;;;;;;27.60;14.98;;;2.80;99.90;;;;;;4999962;28;48696;-77
2020/12/10 08:55:34;;;;;;;25.03;14.53;;;2.80;99.90;;;;;;5005646;28;38483;-76
2020/12/10 08:58:00;;;;;;;23.10;14.00;;;2.90;99.90;;;;;;5026826;28;37855;-77
2020/12/10 09:00:26;;;;;;;22.77;14.10;;;2.90;99.90;;;;;;5024269;28;47622;-76
2020/12/10 09:02:52;;;;;;;25.33;14.73;;;2.90;99.90;;;;;;5040458;28;36560;-77
2020/12/10 09:05:18;;;;;;;24.43;13.57;;;2.90;99.90;;;;;;5017760;28;37641;-76
2020/12/10 09:07:44;;;;;;;23.33;15.20;;;2.90;99.90;;;;;;5021996;28;38972;-77
2020/12/10 09:10:11;;;;;;;25.13;15.17;;;2.90;99.90;;;;;;5024393;28;36208;-77
2020/12/10 09:12:37;;;;;;;22.07;14.43;;;3.00;99.90;;;;;;5042568;28;36488;-77
2020/12/10 09:15:03;;;;;;;24.47;14.27;;;3.00;99.90;;;;;;5028321;28;37883;-77
2020/12/10 09:17:29;;;;;;;22.93;13.63;;;3.00;99.90;;;;;;5025381;28;37550;-77
2020/12/10 09:19:55;;;;;;;21.83;12.80;;;3.00;99.90;;;;;;5025173;28;38374;-76
2020/12/10 09:22:21;;;;;;;22.80;14.17;;;3.10;99.90;;;;;;5026016;28;37465;-76
2020/12/10 09:24:47;;;;;;;21.73;12.90;;;3.10;99.90;;;;;;5023920;28;38908;-77
2020/12/10 09:27:18;;;;;;;24.37;13.70;;;3.10;99.90;;;;;;5033448;28;38923;-76
2020/12/10 09:29:44;;;;;;;19.73;12.83;;;3.10;99.90;;;;;;5019865;28;38630;-76
2020/12/10 09:32:11;;;;;;;21.37;13.43;;;3.10;99.90;;;;;;5040713;28;36506;-76
2020/12/10 09:34:37;;;;;;;20.17;13.17;;;3.20;99.90;;;;;;5031414;28;38146;-77
2020/12/10 09:37:03;;;;;;;21.20;13.20;;;3.10;99.90;;;;;;5038083;28;38364;-77
2020/12/10 09:39:30;;;;;;;21.67;13.50;;;3.10;99.90;;;;;;5024075;28;37513;-76
2020/12/10 09:41:56;;;;;;;23.50;13.07;;;3.10;99.90;;;;;;5026479;28;37734;-77
2020/12/10 09:44:22;;;;;;;22.40;13.47;;;3.10;99.90;;;;;;5025791;28;37485;-77
2020/12/10 09:46:48;;;;;;;22.20;13.83;;;3.10;99.90;;;;;;5034781;28;37520;-75
2020/12/10 09:49:14;;;;;;;21.13;13.80;;;3.10;99.90;;;;;;5019602;28;36066;-76
2020/12/10 09:51:46;;;;;;;33.13;13.13;;;3.20;99.90;;;;;;5020017;28;37078;-77
2020/12/10 09:54:25;;;;;;;21.08;12.35;;;3.20;99.90;;;;;;5024944;28;38485;-76
2020/12/10 09:59:20;;;;;;;21.07;12.80;;;3.30;99.90;;;;;;5025019;28;39121;-77
2020/12/10 10:01:46;;;;;;;19.83;12.40;;;3.30;99.90;;;;;;5026070;28;36555;-77
2020/12/10 10:04:14;;;;;;;19.67;12.70;;;3.30;99.90;;;;;;5027328;28;37709;-78
2020/12/10 10:06:44;;;;;;;22.60;13.43;;;3.30;99.90;;;;;;5025870;28;37258;-77
2020/12/10 10:09:11;;;;;;;24.37;13.33;;;3.30;99.90;;;;;;5029383;28;37613;-77
2020/12/10 10:11:37;;;;;;;20.20;12.90;;;3.30;99.90;;;;;;5025263;28;37371;-76
2020/12/10 10:14:03;;;;;;;23.40;13.13;;;3.30;99.90;;;;;;5024638;28;39889;-77
2020/12/10 10:16:32;;;;;;;22.27;13.30;;;3.30;99.90;;;;;;5024781;28;38330;-77
2020/12/10 10:18:59;;;;;;;24.47;12.53;;;3.30;99.90;;;;;;5021329;28;37029;-77
2020/12/10 10:21:27;;;;;;;22.87;13.60;;;3.30;99.90;;;;;;5003951;28;36498;-77
2020/12/10 10:23:57;;;;;;;24.20;14.23;;;3.30;99.90;;;;;;5030977;28;37790;-77
2020/12/10 10:26:23;;;;;;;23.30;13.43;;;3.40;99.90;;;;;;5025206;28;37510;-77
2020/12/10 10:28:53;;;;;;;21.13;13.40;;;3.40;99.90;;;;;;5019960;28;38029;-77
2020/12/10 10:31:19;;;;;;;19.17;12.37;;;3.40;99.90;;;;;;5021175;28;38301;-77
2020/12/10 10:33:45;;;;;;;23.53;13.47;;;3.40;99.90;;;;;;5042629;28;38438;-77
2020/12/10 10:36:13;;;;;;;21.47;13.60;;;3.40;99.90;;;;;;5038571;28;37785;-77
2020/12/10 10:38:40;;;;;;;19.90;12.53;;;3.50;99.90;;;;;;5033574;28;38057;-77
2020/12/10 10:41:06;;;;;;;17.93;12.47;;;3.50;99.90;;;;;;5045302;28;37682;-77
2020/12/10 10:43:35;;;;;;;21.03;14.23;;;3.50;99.90;;;;;;5024570;28;39941;-77
2020/12/10 10:46:02;;;;;;;22.00;13.60;;;3.50;99.90;;;;;;5027323;28;38596;-77
2020/12/10 10:48:28;;;;;;;20.20;12.27;;;3.50;99.90;;;;;;5016290;28;47213;-77
2020/12/10 10:50:54;;;;;;;21.60;12.87;;;3.60;99.90;;;;;;5034045;28;37234;-77
2020/12/10 10:53:20;;;;;;;20.93;13.27;;;3.60;99.90;;;;;;5031318;28;38712;-77
2020/12/10 10:55:50;;;;;;;22.40;13.63;;;3.60;99.90;;;;;;5027494;28;37288;-77
2020/12/10 10:58:16;;;;;;;17.43;11.80;;;3.60;99.90;;;;;;5042503;28;37499;-77
2020/12/10 11:00:47;;;;;;;21.00;13.00;;;3.80;99.90;;;;;;5041072;28;37535;-77
2020/12/10 11:03:13;;;;;;;19.60;12.87;;;3.80;99.90;;;;;;5028665;28;37617;-77
2020/12/10 11:05:39;;;;;;;20.43;13.23;;;3.80;99.90;;;;;;5021650;28;37712;-77
2020/12/10 11:08:05;;;;;;;20.60;12.73;;;3.80;99.90;;;;;;5044497;28;37910;-77
2020/12/10 11:10:31;;;;;;;17.53;11.93;;;3.90;99.90;;;;;;5013347;28;37171;-77
2020/12/10 11:12:57;;;;;;;19.70;12.47;;;3.90;99.90;;;;;;5010267;28;38660;-77
2020/12/10 11:15:24;;;;;;;20.53;13.33;;;3.90;99.90;;;;;;5027262;28;37236;-77
2020/12/10 11:17:50;;;;;;;18.87;12.20;;;3.90;99.90;;;;;;5031625;28;38358;-77
2020/12/10 11:20:16;;;;;;;21.40;13.63;;;4.00;99.90;;;;;;5025944;28;36574;-74
2020/12/10 11:22:42;;;;;;;20.13;11.97;;;4.10;99.90;;;;;;5039240;28;40822;-75
2020/12/10 11:25:08;;;;;;;18.60;12.27;;;4.10;99.90;;;;;;5029402;28;37257;-75
2020/12/10 11:27:34;;;;;;;20.83;13.10;;;4.30;99.90;;;;;;5024088;28;37263;-75
2020/12/10 11:30:00;;;;;;;20.23;12.73;;;4.30;99.90;;;;;;5022644;28;39400;-76
2020/12/10 11:32:26;;;;;;;19.60;12.30;;;4.30;99.90;;;;;;5023291;28;40754;-77
2020/12/10 11:34:52;;;;;;;18.83;12.00;;;4.20;99.90;;;;;;5026492;28;38322;-77
2020/12/10 11:37:18;;;;;;;20.90;12.80;;;4.20;99.90;;;;;;5028128;28;36913;-76
2020/12/10 11:39:45;;;;;;;20.37;12.73;;;4.20;99.90;;;;;;5026148;28;37254;-77
2020/12/10 11:42:11;;;;;;;18.53;12.63;;;4.10;99.90;;;;;;5024572;28;37714;-76
2020/12/10 11:44:40;;;;;;;20.37;12.63;;;4.10;99.90;;;;;;5027051;28;38417;-77
2020/12/10 11:47:07;;;;;;;20.97;11.70;;;4.10;99.90;;;;;;5030534;28;38163;-77
2020/12/10 11:49:33;;;;;;;20.10;12.77;;;4.10;99.90;;;;;;5047516;28;36769;-77
2020/12/10 11:51:59;;;;;;;20.83;11.90;;;4.10;99.90;;;;;;5025500;28;38823;-76
2020/12/10 11:54:25;;;;;;;18.30;12.00;;;4.10;99.90;;;;;;5058701;28;36331;-76
2020/12/10 11:56:56;;;;;;;20.53;13.27;;;4.20;99.90;;;;;;5024193;28;37582;-77
2020/12/10 11:59:23;;;;;;;19.67;12.83;;;4.20;99.90;;;;;;5026673;28;36516;-76
2020/12/10 12:01:50;;;;;;;20.57;12.30;;;4.30;99.90;;;;;;5019410;28;39033;-76
2020/12/10 12:04:16;;;;;;;19.53;12.87;;;4.40;99.90;;;;;;5053620;28;37609;-76
2020/12/10 12:06:42;;;;;;;19.57;11.90;;;4.40;99.90;;;;;;5020365;28;37246;-77
2020/12/10 12:09:08;;;;;;;19.27;12.03;;;4.40;99.90;;;;;;5024643;28;36347;-78
2020/12/10 12:11:34;;;;;;;18.67;12.43;;;4.50;99.90;;;;;;5042529;28;38442;-78
2020/12/10 12:14:00;;;;;;;18.33;12.57;;;4.50;99.90;;;;;;5027416;28;37661;-78
2020/12/10 12:16:26;;;;;;;21.53;13.13;;;4.50;99.90;;;;;;5044419;28;37116;-78
2020/12/10 12:18:52;;;;;;;21.53;12.40;;;4.50;99.90;;;;;;5026717;28;37420;-78
2020/12/10 12:21:28;;;;;;;21.37;12.47;;;4.50;99.90;;;;;;5025733;28;38389;-77
2020/12/10 12:23:55;;;;;;;17.87;12.00;;;4.50;99.90;;;;;;5054962;28;38051;-77
2020/12/10 12:26:32;;;;;;;20.33;12.43;;;4.40;99.90;;;;;;5025813;28;39757;-77
2020/12/10 12:28:58;;;;;;;19.97;12.50;;;4.40;99.90;;;;;;4992293;28;36720;-76
2020/12/10 12:31:34;;;;;;;20.23;12.57;;;4.30;99.90;;;;;;5013455;28;37718;-76
2020/12/10 12:34:00;;;;;;;22.77;15.43;;;4.30;99.90;;;;;;5048502;28;38528;-76
2020/12/10 12:36:27;;;;;;;20.93;13.00;;;4.20;99.90;;;;;;5020239;28;37402;-76
2020/12/10 12:38:53;;;;;;;19.37;12.23;;;4.10;99.90;;;;;;5006607;28;37530;-76
2020/12/10 12:41:25;;;;;;;20.57;12.83;;;4.10;99.90;;;;;;5004048;28;38949;-76
2020/12/10 12:43:51;;;;;;;22.10;14.10;;;4.10;99.90;;;;;;5007547;28;39317;-77
2020/12/10 12:46:17;;;;;;;20.03;13.23;;;4.10;99.90;;;;;;5028571;28;38666;-77